createdAt,value
2018-07-02T00:01:57.984Z,123.13
2018-07-02T00:04:25.251Z,124.97
2018-07-02T00:07:04.203Z,127.03
2018-07-02T00:09:31.446Z,123.80
2018-07-02T00:11:58.694Z,128.27
2018-07-02T00:14:25.945Z,128.37
2018-07-02T00:16:53.194Z,132.33
2018-07-02T00:19:26.338Z,125.97
2018-07-02T00:21:53.610Z,124.83
2018-07-02T00:24:20.933Z,123.47
2018-07-02T00:26:48.173Z,122.23
2018-07-02T00:29:15.425Z,119.33
2018-07-02T00:31:42.690Z,129.73
2018-07-02T00:34:09.922Z,124.50
2018-07-02T00:36:37.158Z,121.23
2018-07-02T00:39:06.985Z,130.57
2018-07-02T00:41:34.228Z,136.73
2018-07-02T00:44:01.456Z,121.93
2018-07-02T00:46:40.044Z,123.60
2018-07-02T00:49:07.506Z,124.13
2018-07-02T00:51:34.737Z,120.73
2018-07-02T00:54:02.241Z,122.97
2018-07-02T00:56:29.509Z,120.40
2018-07-02T00:58:56.776Z,119.37
2018-07-02T01:01:26.490Z,123.93
2018-07-02T01:03:54.469Z,125.67
2018-07-02T01:06:21.733Z,126.77
2018-07-02T01:08:49.000Z,123.77
2018-07-02T01:11:16.223Z,117.23
2018-07-02T01:13:43.492Z,121.53
2018-07-02T01:16:10.728Z,119.57
2018-07-02T01:18:37.986Z,117.83
2018-07-02T01:21:05.228Z,115.27
2018-07-02T01:23:32.477Z,117.73
2018-07-02T01:25:59.733Z,115.87
2018-07-02T01:28:26.990Z,114.83
2018-07-02T01:30:54.256Z,119.37
2018-07-02T01:33:21.497Z,121.93
2018-07-02T01:35:48.723Z,115.37
2018-07-02T01:38:15.995Z,116.70
2018-07-02T01:40:43.241Z,115.20
2018-07-02T01:43:10.503Z,116.13
2018-07-02T01:45:37.741Z,118.57
2018-07-02T01:48:04.960Z,115.57
2018-07-02T01:50:32.212Z,116.60
2018-07-02T01:52:59.507Z,115.07
2018-07-02T01:55:26.756Z,114.77
2018-07-02T01:57:54.077Z,113.00
2018-07-02T02:00:21.306Z,111.13
2018-07-02T02:02:48.545Z,116.17
2018-07-02T02:05:15.801Z,111.27
2018-07-02T02:07:43.115Z,111.27
2018-07-02T02:10:10.347Z,114.87
2018-07-02T02:12:37.602Z,112.83
2018-07-02T02:15:05.509Z,110.37
2018-07-02T02:17:33.008Z,112.03
2018-07-02T02:20:00.241Z,112.27
2018-07-02T02:22:27.461Z,112.10
2018-07-02T02:24:54.717Z,109.70
2018-07-02T02:27:21.949Z,111.73
2018-07-02T02:29:49.161Z,115.57
2018-07-02T02:32:16.399Z,108.40
2018-07-02T02:34:43.613Z,107.37
2018-07-02T02:37:10.861Z,111.30
2018-07-02T02:39:38.089Z,113.03
2018-07-02T02:42:05.574Z,111.90
2018-07-02T02:44:32.820Z,115.27
2018-07-02T02:47:00.089Z,109.70
2018-07-02T02:49:27.339Z,113.10
2018-07-02T02:51:54.892Z,108.80
2018-07-02T02:54:22.122Z,115.37
2018-07-02T02:56:49.342Z,107.20
2018-07-02T02:59:16.569Z,109.33
2018-07-02T03:01:43.785Z,111.33
2018-07-02T03:04:11.030Z,112.77
2018-07-02T03:06:38.288Z,111.50
2018-07-02T03:09:06.897Z,108.47
2018-07-02T03:11:34.125Z,114.20
2018-07-02T03:14:01.342Z,110.77
2018-07-02T03:16:28.609Z,108.83
2018-07-02T03:18:55.814Z,107.97
2018-07-02T03:21:23.009Z,106.07
2018-07-02T03:23:50.191Z,111.40
2018-07-02T03:26:17.357Z,105.97
2018-07-02T03:28:44.541Z,106.37
2018-07-02T03:31:11.721Z,105.40
2018-07-02T03:33:38.897Z,109.47
2018-07-02T03:36:06.260Z,108.33
2018-07-02T03:38:33.437Z,104.10
2018-07-02T03:41:00.644Z,106.87
2018-07-02T03:43:27.813Z,105.57
2018-07-02T03:45:55.014Z,111.43
2018-07-02T03:48:22.197Z,111.87
2018-07-02T03:50:49.384Z,116.67
2018-07-02T03:53:16.612Z,105.17
2018-07-02T03:55:43.816Z,105.03
2018-07-02T03:58:11.013Z,111.63
2018-07-02T04:00:38.209Z,113.40
2018-07-02T04:03:06.528Z,104.27
2018-07-02T04:05:36.600Z,105.33
2018-07-02T04:08:06.443Z,106.80
2018-07-02T04:10:33.680Z,108.27
2018-07-02T04:13:00.911Z,106.67
2018-07-02T04:15:28.188Z,110.30
2018-07-02T04:17:55.528Z,106.10
2018-07-02T04:20:22.814Z,112.83
2018-07-02T04:22:50.021Z,108.10
2018-07-02T04:25:17.193Z,114.77
2018-07-02T04:27:44.369Z,109.87
2018-07-02T04:30:11.540Z,111.77
2018-07-02T04:32:38.774Z,112.20
2018-07-02T04:35:06.078Z,111.73
2018-07-02T04:37:33.266Z,108.97
2018-07-02T04:40:00.440Z,116.87
2018-07-02T04:42:27.618Z,112.50
2018-07-02T04:44:54.788Z,110.00
2018-07-02T04:47:21.957Z,114.67
2018-07-02T04:49:49.118Z,113.50
2018-07-02T04:52:16.516Z,115.17
2018-07-02T04:54:43.717Z,117.20
2018-07-02T04:57:10.887Z,113.60
2018-07-02T04:59:38.189Z,114.37
2018-07-02T05:02:05.281Z,113.83
2018-07-02T05:04:32.441Z,111.60
2018-07-02T05:06:59.629Z,119.23
2018-07-02T05:09:26.784Z,112.73
2018-07-02T05:11:53.953Z,112.63
2018-07-02T05:14:21.125Z,113.40
2018-07-02T05:16:48.304Z,114.03
2018-07-02T05:19:15.528Z,113.87
2018-07-02T05:21:42.737Z,113.33
2018-07-02T05:24:09.942Z,119.57
2018-07-02T05:26:37.177Z,120.20
2018-07-02T05:29:04.398Z,112.07
2018-07-02T05:31:31.620Z,115.87
2018-07-02T05:33:58.835Z,117.37
2018-07-02T05:36:26.053Z,119.23
2018-07-02T05:38:53.309Z,127.20
2018-07-02T05:41:20.505Z,116.97
2018-07-02T05:43:47.856Z,126.03
2018-07-02T05:46:14.964Z,121.40
2018-07-02T05:48:42.244Z,128.30
2018-07-02T05:51:09.528Z,121.80
2018-07-02T05:53:36.746Z,125.37
2018-07-02T05:56:04.031Z,122.23
2018-07-02T05:58:31.246Z,121.33
2018-07-02T06:00:58.488Z,127.83
2018-07-02T06:03:25.737Z,124.30
2018-07-02T06:05:52.953Z,121.93
2018-07-02T06:08:20.176Z,121.83
2018-07-02T06:10:47.368Z,127.83
2018-07-02T06:13:14.636Z,125.17
2018-07-02T06:15:41.803Z,126.80
2018-07-02T06:18:08.999Z,127.43
2018-07-02T06:20:36.233Z,130.50
2018-07-02T06:23:03.494Z,126.43
2018-07-02T06:25:30.707Z,132.20
2018-07-02T06:27:57.950Z,131.47
2018-07-02T06:30:25.228Z,145.57
2018-07-02T06:32:52.833Z,135.50
2018-07-02T06:35:20.032Z,139.97
2018-07-02T06:37:47.249Z,133.57
2018-07-02T06:40:14.446Z,142.73
2018-07-02T06:42:41.649Z,142.57
2018-07-02T06:45:08.948Z,141.53
2018-07-02T06:47:36.544Z,144.17
2018-07-02T06:50:03.997Z,144.67
2018-07-02T06:52:31.229Z,161.27
2018-07-02T06:54:58.720Z,174.93
2018-07-02T06:57:25.949Z,174.87
2018-07-02T06:59:53.145Z,213.37
2018-07-02T07:02:20.355Z,261.00
2018-07-02T07:04:47.575Z,297.13
2018-07-02T07:07:14.785Z,320.80
2018-07-02T07:09:42.010Z,384.73
2018-07-02T07:12:09.238Z,402.97
2018-07-02T07:14:36.456Z,450.53
2018-07-02T07:17:03.696Z,479.10
2018-07-02T07:19:30.875Z,525.93
2018-07-02T07:21:58.108Z,515.90
2018-07-02T07:24:25.264Z,561.60
2018-07-02T07:26:52.793Z,529.33
2018-07-02T07:29:20.054Z,559.27
2018-07-02T07:31:47.221Z,528.43
2018-07-02T07:34:14.388Z,571.53
2018-07-02T07:36:41.550Z,601.17
2018-07-02T07:39:09.902Z,577.83
2018-07-02T07:41:37.072Z,541.63
2018-07-02T07:44:04.298Z,570.90
2018-07-02T07:46:31.445Z,541.70
2018-07-02T07:48:58.634Z,548.50
2018-07-02T07:51:25.784Z,545.50
2018-07-02T07:53:52.956Z,594.90
2018-07-02T07:56:20.154Z,574.50
2018-07-02T07:58:47.323Z,571.17
2018-07-02T08:01:14.524Z,610.30
2018-07-02T08:03:41.746Z,622.90
2018-07-02T08:06:08.908Z,658.03
2018-07-02T08:08:36.090Z,688.40
2018-07-02T08:11:03.317Z,673.10
2018-07-02T08:13:30.491Z,630.23
2018-07-02T08:15:57.673Z,660.60
2018-07-02T08:18:24.840Z,667.60
2018-07-02T08:20:52.059Z,688.83
2018-07-02T08:23:19.324Z,669.07
2018-07-02T08:25:46.536Z,674.47
2018-07-02T08:28:13.749Z,667.63
2018-07-02T08:30:40.969Z,666.63
2018-07-02T08:33:08.212Z,722.80
2018-07-02T08:35:35.427Z,742.30
2018-07-02T08:38:02.810Z,717.07
2018-07-02T08:40:30.049Z,791.60
2018-07-02T08:42:57.254Z,778.97
2018-07-02T08:45:24.477Z,728.17
2018-07-02T08:47:51.713Z,735.77
2018-07-02T08:50:18.920Z,732.63
2018-07-02T08:52:46.146Z,731.53
2018-07-02T08:55:13.386Z,756.47
2018-07-02T08:57:40.606Z,723.50
2018-07-02T09:00:07.882Z,744.53
2018-07-02T09:02:35.112Z,705.13
2018-07-02T09:05:02.357Z,720.47
2018-07-02T09:07:29.558Z,727.30
2018-07-02T09:09:56.783Z,799.47
2018-07-02T09:12:23.980Z,758.00
2018-07-02T09:14:51.422Z,778.30
2018-07-02T09:17:18.476Z,738.53
2018-07-02T09:19:45.657Z,770.77
2018-07-02T09:22:12.824Z,752.47
2018-07-02T09:24:39.990Z,701.87
2018-07-02T09:27:07.141Z,715.67
2018-07-02T09:29:34.481Z,740.70
2018-07-02T09:32:01.648Z,756.70
2018-07-02T09:34:28.800Z,754.77
2018-07-02T09:36:55.993Z,786.27
2018-07-02T09:39:23.174Z,723.10
2018-07-02T09:41:50.337Z,715.97
2018-07-02T09:44:17.489Z,733.07
2018-07-02T09:46:44.662Z,712.10
2018-07-02T09:49:11.814Z,738.83
2018-07-02T09:51:39.040Z,763.60
2018-07-02T09:54:06.325Z,745.37
2018-07-02T09:56:33.504Z,721.23
2018-07-02T09:59:00.831Z,742.47
2018-07-02T10:01:27.900Z,766.67
2018-07-02T10:03:55.060Z,736.93
2018-07-02T10:06:22.684Z,707.17
2018-07-02T10:08:49.809Z,740.03
2018-07-02T10:11:16.970Z,735.00
2018-07-02T10:13:44.132Z,732.90
2018-07-02T10:16:11.294Z,727.87
2018-07-02T10:18:38.469Z,740.30
2018-07-02T10:21:06.139Z,726.20
2018-07-02T10:23:37.334Z,762.80
2018-07-02T10:26:00.546Z,704.20
2018-07-02T10:28:27.645Z,691.47
2018-07-02T10:30:54.854Z,663.30
2018-07-02T10:33:22.009Z,662.93
2018-07-02T10:35:49.168Z,715.20
2018-07-02T10:38:16.328Z,714.13
2018-07-02T10:40:43.501Z,707.43
2018-07-02T10:43:10.660Z,689.37
2018-07-02T10:45:37.806Z,683.57
2018-07-02T10:48:04.989Z,664.93
2018-07-02T10:50:32.158Z,728.10
2018-07-02T10:52:59.322Z,769.67
2018-07-02T10:55:26.508Z,753.63
2018-07-02T10:57:53.696Z,761.27
2018-07-02T11:00:20.889Z,771.20
2018-07-02T11:02:48.065Z,755.97
2018-07-02T11:05:15.233Z,812.90
2018-07-02T11:07:42.409Z,770.63
2018-07-02T11:10:09.565Z,786.00
2018-07-02T11:12:36.744Z,782.73
2018-07-02T11:15:04.149Z,777.37
2018-07-02T11:17:31.305Z,766.17
2018-07-02T11:19:58.489Z,767.50
2018-07-02T11:22:25.651Z,768.33
2018-07-02T11:24:53.025Z,758.83
2018-07-02T11:27:20.204Z,770.03
2018-07-02T11:29:47.373Z,749.57
2018-07-02T11:32:14.528Z,751.30
2018-07-02T11:34:41.706Z,765.90
2018-07-02T11:37:08.872Z,803.43
2018-07-02T11:39:36.030Z,783.23
2018-07-02T11:42:03.211Z,791.90
2018-07-02T11:44:30.723Z,796.27
2018-07-02T11:46:57.868Z,827.30
2018-07-02T11:49:25.029Z,779.00
2018-07-02T11:51:52.408Z,757.93
2018-07-02T11:54:19.604Z,746.93
2018-07-02T11:56:46.755Z,772.27
2018-07-02T11:59:13.932Z,780.37
2018-07-02T12:01:41.109Z,790.17
2018-07-02T12:04:08.313Z,727.40
2018-07-02T12:06:35.458Z,742.30
2018-07-02T12:09:03.890Z,743.23
2018-07-02T12:11:31.078Z,759.80
2018-07-02T12:13:58.237Z,782.10
2018-07-02T12:16:25.414Z,786.30
2018-07-02T12:18:52.580Z,746.40
2018-07-02T12:21:19.746Z,755.20
2018-07-02T12:23:46.903Z,793.07
2018-07-02T12:26:14.108Z,748.87
2018-07-02T12:28:41.245Z,730.50
2018-07-02T12:31:08.428Z,730.47
2018-07-02T12:33:35.691Z,732.67
2018-07-02T12:36:02.786Z,745.53
2018-07-02T12:38:29.939Z,763.47
2018-07-02T12:40:57.101Z,778.53
2018-07-02T12:43:24.256Z,771.83
2018-07-02T12:45:51.513Z,772.03
2018-07-02T12:48:18.665Z,784.23
2018-07-02T12:50:45.908Z,780.43
2018-07-02T12:53:13.073Z,769.90
2018-07-02T12:55:40.244Z,783.10
2018-07-02T12:58:07.430Z,774.60
2018-07-02T13:00:34.608Z,783.63
2018-07-02T13:03:01.775Z,757.27
2018-07-02T13:05:29.082Z,758.23
2018-07-02T13:07:56.237Z,766.67
2018-07-02T13:10:23.434Z,778.13
2018-07-02T13:12:50.625Z,760.10
2018-07-02T13:15:17.792Z,773.37
2018-07-02T13:17:44.961Z,793.93
2018-07-02T13:20:12.184Z,752.37
2018-07-02T13:22:39.394Z,736.80
2018-07-02T13:25:06.619Z,770.67
2018-07-02T13:27:33.849Z,762.23
2018-07-02T13:30:01.078Z,731.07
2018-07-02T13:32:28.282Z,740.00
2018-07-02T13:34:55.480Z,727.80
2018-07-02T13:37:22.690Z,796.07
2018-07-02T13:39:49.967Z,774.97
2018-07-02T13:42:17.188Z,760.13
2018-07-02T13:44:44.385Z,795.87
2018-07-02T13:47:11.613Z,807.80
2018-07-02T13:49:38.809Z,795.73
2018-07-02T13:52:06.012Z,785.97
2018-07-02T13:54:33.253Z,809.40
2018-07-02T13:57:00.501Z,814.20
2018-07-02T13:59:27.721Z,807.17
2018-07-02T14:01:54.932Z,758.50
2018-07-02T14:04:22.132Z,755.50
2018-07-02T14:06:49.350Z,765.30
2018-07-02T14:09:16.553Z,724.37
2018-07-02T14:11:43.770Z,736.10
2018-07-02T14:14:10.989Z,762.07
2018-07-02T14:16:38.200Z,765.33
2018-07-02T14:19:05.748Z,753.83
2018-07-02T14:21:33.017Z,761.23
2018-07-02T14:24:00.177Z,756.37
2018-07-02T14:26:27.349Z,777.37
2018-07-02T14:28:54.548Z,747.57
2018-07-02T14:31:21.724Z,802.40
2018-07-02T14:33:48.876Z,758.50
2018-07-02T14:36:16.029Z,762.23
2018-07-02T14:38:43.220Z,756.77
2018-07-02T14:41:10.397Z,753.23
2018-07-02T14:43:38.014Z,784.97
2018-07-02T14:46:05.252Z,803.33
2018-07-02T14:48:32.481Z,749.00
2018-07-02T14:50:59.858Z,767.53
2018-07-02T14:53:27.057Z,783.47
2018-07-02T14:55:54.272Z,767.10
2018-07-02T14:58:21.509Z,810.70
2018-07-02T15:00:48.792Z,771.70
2018-07-02T15:03:16.014Z,762.90
2018-07-02T15:05:43.221Z,752.23
2018-07-02T15:08:10.812Z,762.23
2018-07-02T15:10:38.037Z,752.67
2018-07-02T15:13:05.264Z,753.00
2018-07-02T15:15:32.523Z,753.87
2018-07-02T15:17:59.716Z,759.23
2018-07-02T15:20:26.958Z,755.13
2018-07-02T15:22:54.450Z,715.00
2018-07-02T15:25:21.613Z,735.43
2018-07-02T15:27:48.817Z,726.57
2018-07-02T15:30:16.046Z,753.77
2018-07-02T15:32:43.253Z,737.27
2018-07-02T15:35:10.488Z,740.23
2018-07-02T15:37:37.681Z,720.47
2018-07-02T15:40:04.945Z,748.80
2018-07-02T15:42:32.152Z,727.33
2018-07-02T15:44:59.884Z,706.63
2018-07-02T15:47:27.112Z,726.10
2018-07-02T15:49:54.353Z,737.70
2018-07-02T15:52:21.561Z,715.30
2018-07-02T15:54:48.777Z,735.37
2018-07-02T15:57:16.029Z,705.97
2018-07-02T15:59:43.238Z,720.83
2018-07-02T16:02:10.444Z,717.90
2018-07-02T16:04:37.758Z,726.23
2018-07-02T16:07:04.980Z,697.07
2018-07-02T16:09:32.187Z,752.50
2018-07-02T16:11:59.388Z,720.87
2018-07-02T16:14:26.624Z,697.43
2018-07-02T16:16:53.843Z,716.17
2018-07-02T16:19:21.063Z,714.20
2018-07-02T16:21:48.260Z,751.27
2018-07-02T16:24:15.578Z,727.57
2018-07-02T16:26:42.786Z,725.53
2018-07-02T16:29:10.013Z,757.40
2018-07-02T16:31:37.292Z,721.07
2018-07-02T16:34:04.649Z,697.10
2018-07-02T16:36:31.906Z,720.30
2018-07-02T16:38:59.110Z,717.23
2018-07-02T16:41:26.473Z,699.67
2018-07-02T16:43:53.728Z,722.67
2018-07-02T16:46:20.945Z,705.63
2018-07-02T16:48:48.173Z,720.83
2018-07-02T16:51:15.508Z,682.13
2018-07-02T16:53:42.725Z,670.97
2018-07-02T16:56:09.940Z,700.10
2018-07-02T16:58:37.132Z,693.63
2018-07-02T17:01:05.230Z,687.17
2018-07-02T17:03:32.504Z,680.60
2018-07-02T17:05:59.804Z,691.90
2018-07-02T17:08:27.132Z,689.77
2018-07-02T17:10:54.334Z,661.80
2018-07-02T17:13:21.597Z,666.37
2018-07-02T17:15:48.812Z,686.83
2018-07-02T17:18:16.041Z,671.07
2018-07-02T17:20:43.268Z,637.77
2018-07-02T17:23:10.474Z,615.17
2018-07-02T17:25:37.633Z,660.93
2018-07-02T17:28:05.069Z,614.90
2018-07-02T17:30:32.274Z,590.77
2018-07-02T17:32:59.424Z,605.77
2018-07-02T17:35:27.397Z,587.63
2018-07-02T17:37:54.585Z,567.53
2018-07-02T17:40:21.756Z,538.00
2018-07-02T17:42:48.915Z,502.87
2018-07-02T17:45:16.082Z,517.50
2018-07-02T17:47:43.244Z,462.77
2018-07-02T17:50:10.432Z,464.23
2018-07-02T17:52:37.587Z,482.30
2018-07-02T17:55:05.106Z,431.67
2018-07-02T17:57:32.265Z,469.67
2018-07-02T17:59:59.425Z,433.80
2018-07-02T18:02:26.613Z,441.33
2018-07-02T18:04:53.772Z,450.27
2018-07-02T18:07:21.013Z,453.17
2018-07-02T18:09:48.252Z,413.17
2018-07-02T18:12:15.409Z,418.73
2018-07-02T18:14:42.576Z,387.80
2018-07-02T18:17:09.764Z,393.73
2018-07-02T18:19:36.953Z,380.10
2018-07-02T18:22:04.159Z,374.03
2018-07-02T18:24:31.374Z,377.93
2018-07-02T18:26:58.748Z,375.40
2018-07-02T18:29:25.916Z,370.70
2018-07-02T18:31:53.098Z,387.37
2018-07-02T18:34:20.265Z,368.40
2018-07-02T18:36:47.485Z,359.63
2018-07-02T18:39:14.665Z,368.83
2018-07-02T18:41:41.858Z,339.33
2018-07-02T18:44:09.045Z,366.13
2018-07-02T18:46:36.556Z,338.80
2018-07-02T18:49:04.275Z,339.07
2018-07-02T18:51:31.551Z,335.43
2018-07-02T18:54:03.012Z,331.50
2018-07-02T18:56:32.063Z,307.60
2018-07-02T18:59:01.986Z,323.77
2018-07-02T19:01:29.228Z,292.77
2018-07-02T19:03:56.453Z,302.53
2018-07-02T19:06:23.682Z,302.90
2018-07-02T19:08:50.875Z,305.73
2018-07-02T19:11:18.061Z,310.47
2018-07-02T19:13:45.501Z,338.37
2018-07-02T19:16:12.694Z,290.40
2018-07-02T19:18:39.848Z,288.73
2018-07-02T19:21:07.184Z,291.33
2018-07-02T19:23:34.449Z,279.97
2018-07-02T19:26:01.689Z,282.63
2018-07-02T19:28:29.005Z,284.27
2018-07-02T19:30:56.241Z,274.67
2018-07-02T19:33:23.491Z,291.83
2018-07-02T19:35:50.745Z,276.63
2018-07-02T19:38:17.993Z,260.23
2018-07-02T19:40:47.134Z,258.97
2018-07-02T19:43:15.025Z,256.63
2018-07-02T19:45:42.264Z,252.60
2018-07-02T19:48:09.485Z,261.10
2018-07-02T19:50:36.699Z,260.10
2018-07-02T19:53:03.993Z,259.57
2018-07-02T19:55:31.420Z,239.10
2018-07-02T19:57:58.789Z,260.33
2018-07-02T20:00:26.055Z,244.47
2018-07-02T20:02:53.336Z,259.23
2018-07-02T20:05:20.505Z,261.00
2018-07-02T20:07:47.729Z,268.07
2018-07-02T20:10:15.232Z,235.93
2018-07-02T20:12:42.492Z,245.33
2018-07-02T20:15:09.749Z,239.80
2018-07-02T20:17:36.976Z,239.53
2018-07-02T20:20:07.336Z,241.77
2018-07-02T20:22:34.506Z,252.27
2018-07-02T20:25:01.680Z,237.10
2018-07-02T20:27:28.898Z,236.20
2018-07-02T20:29:56.096Z,244.93
2018-07-02T20:32:23.267Z,232.80
2018-07-02T20:34:50.500Z,226.87
2018-07-02T20:37:17.649Z,221.20
2018-07-02T20:39:45.085Z,210.87
2018-07-02T20:42:12.334Z,221.17
2018-07-02T20:44:39.492Z,228.73
2018-07-02T20:47:06.680Z,228.63
2018-07-02T20:49:34.141Z,222.93
2018-07-02T20:52:01.499Z,224.40
2018-07-02T20:54:28.682Z,225.47
2018-07-02T20:56:55.877Z,230.70
2018-07-02T20:59:23.032Z,218.50
2018-07-02T21:01:50.316Z,240.30
2018-07-02T21:04:17.480Z,240.57
2018-07-02T21:06:44.650Z,230.60
2018-07-02T21:09:11.833Z,217.20
2018-07-02T21:11:39.049Z,214.80
2018-07-02T21:14:06.605Z,223.60
2018-07-02T21:16:34.085Z,216.37
2018-07-02T21:19:01.442Z,230.87
2018-07-02T21:21:28.635Z,211.90
2018-07-02T21:23:55.960Z,200.13
2018-07-02T21:26:23.184Z,213.77
2018-07-02T21:28:50.459Z,206.33
2018-07-02T21:31:17.712Z,213.43
2018-07-02T21:33:44.967Z,238.93
2018-07-02T21:36:12.185Z,206.80
2018-07-02T21:38:39.402Z,226.27
2018-07-02T21:41:06.653Z,210.17
2018-07-02T21:43:33.891Z,211.03
2018-07-02T21:46:01.123Z,209.07
2018-07-02T21:48:28.406Z,212.50
2018-07-02T21:50:55.580Z,216.53
2018-07-02T21:53:22.836Z,249.67
2018-07-02T21:55:50.057Z,209.90
2018-07-02T21:58:17.253Z,226.10
2018-07-02T22:00:45.093Z,208.70
2018-07-02T22:03:12.321Z,208.80
2018-07-02T22:05:39.781Z,218.53
2018-07-02T22:08:07.021Z,223.20
2018-07-02T22:10:34.265Z,212.50
2018-07-02T22:13:01.593Z,220.37
2018-07-02T22:15:28.815Z,210.70
2018-07-02T22:17:56.045Z,227.33
2018-07-02T22:20:23.256Z,220.77
2018-07-02T22:22:50.470Z,236.03
2018-07-02T22:25:17.735Z,207.57
2018-07-02T22:27:45.185Z,219.17
2018-07-02T22:30:12.444Z,202.40
2018-07-02T22:32:39.652Z,216.90
2018-07-02T22:35:06.889Z,226.23
2018-07-02T22:37:34.123Z,233.37
2018-07-02T22:40:01.358Z,215.07
2018-07-02T22:42:28.596Z,197.53
2018-07-02T22:44:55.791Z,200.57
2018-07-02T22:47:23.015Z,194.40
2018-07-02T22:49:50.229Z,212.40
2018-07-02T22:52:17.453Z,203.43
2018-07-02T22:54:44.692Z,194.83
2018-07-02T22:57:11.939Z,197.20
2018-07-02T22:59:39.149Z,208.53
2018-07-02T23:02:06.380Z,214.77
2018-07-02T23:04:33.593Z,191.83
2018-07-02T23:07:00.809Z,215.07
2018-07-02T23:09:28.019Z,197.23
2018-07-02T23:11:55.231Z,209.57
2018-07-02T23:14:22.453Z,217.80
2018-07-02T23:16:49.666Z,209.70
2018-07-02T23:19:16.909Z,190.63
2018-07-02T23:21:44.253Z,215.47
2018-07-02T23:24:11.673Z,219.17
2018-07-02T23:26:38.869Z,188.07
2018-07-02T23:29:06.083Z,208.73
2018-07-02T23:31:33.284Z,191.97
2018-07-02T23:34:00.479Z,203.87
2018-07-02T23:36:27.703Z,188.37
2018-07-02T23:38:54.914Z,205.77
2018-07-02T23:41:22.122Z,196.57
2018-07-02T23:43:49.350Z,213.90
2018-07-02T23:46:16.561Z,185.63
2018-07-02T23:48:43.781Z,199.77
2018-07-02T23:51:11.056Z,208.37
2018-07-02T23:53:38.224Z,189.73
2018-07-02T23:56:05.870Z,187.27
2018-07-02T23:58:33.101Z,184.10
